createdAt,value
2022-10-18T00:03:00.685Z,10.57
2022-10-18T00:06:04.825Z,10.90
2022-10-18T00:09:07.846Z,11.00
2022-10-18T00:12:10.905Z,9.63
2022-10-18T00:15:13.940Z,10.50
2022-10-18T00:18:18.626Z,10.23
2022-10-18T00:21:23.778Z,9.23
2022-10-18T00:24:26.861Z,9.13
2022-10-18T00:27:30.769Z,9.50
2022-10-18T00:30:33.725Z,9.07
2022-10-18T00:33:38.234Z,10.00
2022-10-18T00:36:41.299Z,8.63
2022-10-18T00:39:44.685Z,9.60
2022-10-18T00:42:47.768Z,8.60
2022-10-18T00:45:50.854Z,8.50
2022-10-18T00:48:57.649Z,9.17
2022-10-18T00:52:04.743Z,9.47
2022-10-18T00:55:08.915Z,8.20
2022-10-18T00:58:14.280Z,7.80
2022-10-18T01:01:17.382Z,8.03
2022-10-18T01:04:23.289Z,8.20
2022-10-18T01:07:39.106Z,7.20
2022-10-18T01:10:49.414Z,7.83
2022-10-18T01:14:05.917Z,7.33
2022-10-18T01:17:14.526Z,7.00
2022-10-18T01:21:06.782Z,7.47
2022-10-18T01:28:35.799Z,7.10
2022-10-18T01:31:46.589Z,7.10
2022-10-18T01:34:51.982Z,6.70
2022-10-18T01:37:58.665Z,7.03
2022-10-18T01:41:04.339Z,6.40
2022-10-18T01:44:11.689Z,7.00
2022-10-18T01:47:16.957Z,6.73
2022-10-18T01:50:30.347Z,6.60
2022-10-18T01:53:35.478Z,7.10
2022-10-18T01:56:46.234Z,7.07
2022-10-18T01:59:59.650Z,6.20
2022-10-18T02:03:12.955Z,6.87
2022-10-18T02:06:21.501Z,6.93
2022-10-18T02:09:31.295Z,6.87
2022-10-18T02:12:36.235Z,7.60
2022-10-18T02:15:42.624Z,7.00
2022-10-18T02:18:51.664Z,7.10
2022-10-18T02:21:56.253Z,7.20
2022-10-18T02:25:03.197Z,6.93
2022-10-18T02:28:07.386Z,7.37
2022-10-18T02:31:20.466Z,6.73
2022-10-18T02:34:30.712Z,6.90
2022-10-18T02:37:36.851Z,6.37
2022-10-18T02:40:39.964Z,6.67
2022-10-18T02:43:43.021Z,6.90
2022-10-18T02:46:46.655Z,6.60
2022-10-18T02:49:51.141Z,7.20
2022-10-18T02:52:54.184Z,7.00
2022-10-18T02:55:57.203Z,7.50
2022-10-18T02:59:00.184Z,7.03
2022-10-18T03:02:03.279Z,6.50
2022-10-18T03:05:08.131Z,6.77
2022-10-18T03:08:11.136Z,6.97
2022-10-18T03:11:14.365Z,6.50
2022-10-18T03:14:17.449Z,9.50
2022-10-18T03:17:20.607Z,28.47
2022-10-18T03:20:25.020Z,22.27
2022-10-18T03:23:28.095Z,19.47
2022-10-18T03:26:31.150Z,17.43
2022-10-18T03:29:34.221Z,24.07
2022-10-18T03:32:37.166Z,20.23
2022-10-18T03:35:41.729Z,25.50
2022-10-18T03:38:44.729Z,27.97
2022-10-18T03:41:48.061Z,43.90
2022-10-18T03:44:51.134Z,36.33
2022-10-18T03:47:54.104Z,19.70
2022-10-18T03:50:58.542Z,18.30
2022-10-18T03:54:01.590Z,16.60
2022-10-18T03:57:05.182Z,13.03
2022-10-18T04:00:09.612Z,13.30
2022-10-18T04:03:12.674Z,12.10
2022-10-18T04:06:17.411Z,21.03
2022-10-18T04:09:20.545Z,33.37
2022-10-18T04:12:23.734Z,28.17
2022-10-18T04:15:26.707Z,18.67
2022-10-18T04:18:29.932Z,15.93
2022-10-18T04:21:34.306Z,14.00
2022-10-18T04:24:37.349Z,13.90
2022-10-18T04:27:40.741Z,12.70
2022-10-18T04:30:43.767Z,13.30
2022-10-18T04:33:47.093Z,12.90
2022-10-18T04:36:51.577Z,11.97
2022-10-18T04:39:54.606Z,14.43
2022-10-18T04:42:57.592Z,13.50
2022-10-18T04:46:00.646Z,12.13
2022-10-18T04:49:04.107Z,12.67
2022-10-18T04:52:08.811Z,12.93
2022-10-18T04:55:11.857Z,14.37
2022-10-18T04:58:14.849Z,15.07
2022-10-18T05:01:19.059Z,11.70
2022-10-18T05:04:22.232Z,14.70
2022-10-18T05:07:27.048Z,13.73
2022-10-18T05:10:30.241Z,18.50
2022-10-18T05:13:33.216Z,16.57
2022-10-18T05:16:36.219Z,15.93
2022-10-18T05:19:39.199Z,18.23
2022-10-18T05:22:43.953Z,17.70
2022-10-18T05:25:46.972Z,19.63
2022-10-18T05:28:51.085Z,17.53
2022-10-18T05:31:54.211Z,20.70
2022-10-18T05:34:57.258Z,20.20
2022-10-18T05:38:03.540Z,18.23
2022-10-18T05:41:07.100Z,15.20
2022-10-18T05:44:10.610Z,17.63
2022-10-18T05:47:13.678Z,15.10
2022-10-18T05:50:16.820Z,15.93
2022-10-18T05:53:37.810Z,22.00
2022-10-18T05:56:41.203Z,16.23
2022-10-18T05:59:45.391Z,16.83
2022-10-18T06:02:48.406Z,16.13
2022-10-18T06:05:51.441Z,18.13
2022-10-18T06:08:55.913Z,15.70
2022-10-18T06:11:58.896Z,12.90
2022-10-18T06:15:01.883Z,10.53
2022-10-18T06:18:05.015Z,13.30
2022-10-18T06:21:08.887Z,13.10
2022-10-18T06:24:13.667Z,14.07
2022-10-18T06:27:16.947Z,11.63
2022-10-18T06:30:19.929Z,11.37
2022-10-18T06:33:22.935Z,16.80
2022-10-18T06:36:26.124Z,11.30
2022-10-18T06:39:30.556Z,10.57
2022-10-18T06:42:33.941Z,12.50
2022-10-18T06:45:37.250Z,12.40
2022-10-18T06:48:40.806Z,11.50
2022-10-18T06:51:44.442Z,10.70
2022-10-18T06:54:48.833Z,8.77
2022-10-18T06:57:51.824Z,10.47
2022-10-18T07:00:54.827Z,10.37
2022-10-18T07:03:58.236Z,9.67
2022-10-18T07:07:01.250Z,9.53
2022-10-18T07:10:06.581Z,9.57
2022-10-18T07:16:34.189Z,9.47
2022-10-18T07:19:37.223Z,9.50
2022-10-18T07:22:40.324Z,9.70
2022-10-18T07:25:44.712Z,11.20
2022-10-18T07:28:50.184Z,11.90
2022-10-18T07:31:53.214Z,11.67
2022-10-18T07:34:56.201Z,10.47
2022-10-18T07:37:59.452Z,9.97
2022-10-18T07:41:06.635Z,10.00
2022-10-18T07:44:09.892Z,12.83
2022-10-18T07:47:12.961Z,12.87
2022-10-18T07:50:16.179Z,12.53
2022-10-18T07:53:19.183Z,8.93
2022-10-18T07:56:23.752Z,12.80
2022-10-18T07:59:26.755Z,12.80
2022-10-18T08:02:29.680Z,13.90
2022-10-18T08:08:42.395Z,9.00
2022-10-18T08:11:46.763Z,13.50
2022-10-18T08:14:49.796Z,12.00
2022-10-18T08:17:52.913Z,13.87
2022-10-18T08:20:55.948Z,9.67
2022-10-18T08:23:59.016Z,8.10
2022-10-18T08:27:03.428Z,7.77
2022-10-18T08:30:09.342Z,10.80
2022-10-18T08:33:12.338Z,11.47
2022-10-18T08:36:17.061Z,11.83
2022-10-18T08:39:20.052Z,10.97
2022-10-18T08:42:45.405Z,11.10
2022-10-18T08:45:49.071Z,8.77
2022-10-18T08:48:55.811Z,11.20
2022-10-18T08:51:59.516Z,7.67
2022-10-18T08:55:05.269Z,7.80
2022-10-18T08:58:18.420Z,8.70
2022-10-18T09:01:31.497Z,7.67
2022-10-18T09:04:48.165Z,9.13
2022-10-18T09:08:11.523Z,9.93
2022-10-18T09:11:26.037Z,9.23
2022-10-18T09:14:53.460Z,7.10
2022-10-18T09:18:10.448Z,9.07
2022-10-18T09:21:22.784Z,10.20
2022-10-18T09:24:32.619Z,6.90
2022-10-18T09:27:45.287Z,7.03
2022-10-18T09:31:01.276Z,6.70
2022-10-18T09:34:07.720Z,7.70
2022-10-18T09:37:14.399Z,6.50
2022-10-18T09:40:22.663Z,7.20
2022-10-18T09:43:33.639Z,7.00
2022-10-18T09:46:42.073Z,10.47
2022-10-18T09:49:48.649Z,7.80
2022-10-18T09:52:59.880Z,7.10
2022-10-18T09:56:07.292Z,10.37
2022-10-18T09:59:32.636Z,7.07
2022-10-18T10:02:37.066Z,8.00
2022-10-18T10:05:40.447Z,9.60
2022-10-18T10:08:44.429Z,7.00
2022-10-18T10:11:48.856Z,7.93
2022-10-18T10:14:51.919Z,8.97
2022-10-18T10:18:02.401Z,8.33
2022-10-18T10:21:08.402Z,8.67
2022-10-18T10:24:26.192Z,8.50
2022-10-18T10:27:35.897Z,8.80
2022-10-18T10:30:39.640Z,8.20
2022-10-18T10:33:48.361Z,7.13
2022-10-18T10:36:53.159Z,8.07
2022-10-18T10:40:19.841Z,7.37
2022-10-18T10:43:42.641Z,7.10
2022-10-18T10:46:45.768Z,7.60
2022-10-18T10:49:50.235Z,7.30
2022-10-18T10:52:53.821Z,7.27
2022-10-18T10:55:59.031Z,7.10
2022-10-18T10:59:11.173Z,6.70
2022-10-18T11:02:22.795Z,6.90
2022-10-18T11:05:30.269Z,6.60
2022-10-18T11:08:39.171Z,6.67
2022-10-18T11:11:51.560Z,7.43
2022-10-18T11:15:03.753Z,6.73
2022-10-18T11:18:19.481Z,12.90
2022-10-18T11:21:28.140Z,6.03
2022-10-18T11:24:31.967Z,6.67
2022-10-18T11:27:42.391Z,6.50
2022-10-18T11:30:55.497Z,6.80
2022-10-18T11:34:16.171Z,6.63
2022-10-18T11:37:41.771Z,5.90
2022-10-18T11:40:56.553Z,6.43
2022-10-18T11:44:03.354Z,6.07
2022-10-18T11:47:16.971Z,5.67
2022-10-18T11:50:28.103Z,6.30
2022-10-18T11:53:40.703Z,6.87
2022-10-18T11:56:48.747Z,6.03
2022-10-18T12:00:04.257Z,6.10
2022-10-18T12:03:23.635Z,6.10
2022-10-18T12:06:32.069Z,6.27
2022-10-18T12:09:40.382Z,5.60
2022-10-18T12:12:51.722Z,6.50
2022-10-18T12:15:55.821Z,6.70
2022-10-18T12:19:02.653Z,6.50
2022-10-18T12:22:15.654Z,6.60
2022-10-18T12:25:20.752Z,6.30
2022-10-18T12:28:35.289Z,6.87
2022-10-18T12:31:43.579Z,7.57
2022-10-18T12:34:50.505Z,7.57
2022-10-18T12:38:06.982Z,6.60
2022-10-18T12:41:20.622Z,6.93
2022-10-18T12:44:30.825Z,5.77
2022-10-18T12:47:34.830Z,8.57
2022-10-18T12:50:39.835Z,7.33
2022-10-18T12:53:45.453Z,6.77
2022-10-18T12:56:51.035Z,7.67
2022-10-18T12:59:53.985Z,6.83
2022-10-18T13:03:38.488Z,6.50
2022-10-18T13:07:19.955Z,6.40
2022-10-18T13:10:41.031Z,5.90
2022-10-18T13:13:55.723Z,6.30
2022-10-18T13:17:07.261Z,6.07
2022-10-18T13:20:26.734Z,6.03
2022-10-18T13:23:42.890Z,5.90
2022-10-18T13:27:04.221Z,5.70
2022-10-18T13:30:34.387Z,6.70
2022-10-18T13:33:40.103Z,5.80
2022-10-18T13:36:43.852Z,5.20
2022-10-18T13:39:47.473Z,6.43
2022-10-18T13:42:50.766Z,5.57
2022-10-18T13:45:58.241Z,5.93
2022-10-18T13:49:16.149Z,6.20
2022-10-18T13:52:27.063Z,5.77
2022-10-18T13:55:49.796Z,5.90
2022-10-18T13:59:22.688Z,6.13
2022-10-18T14:03:00.401Z,5.00
2022-10-18T14:06:08.902Z,5.70
2022-10-18T14:09:26.070Z,5.27
2022-10-18T14:12:45.283Z,5.60
2022-10-18T14:15:50.770Z,5.80
2022-10-18T14:19:02.153Z,5.40
2022-10-18T14:22:12.621Z,5.20
2022-10-18T14:25:26.920Z,5.50
2022-10-18T14:28:48.071Z,5.00
2022-10-18T14:31:55.728Z,4.93
2022-10-18T14:35:42.265Z,5.33
2022-10-18T14:38:23.317Z,5.83
2022-10-18T14:41:29.711Z,5.10
2022-10-18T14:44:34.891Z,7.43
2022-10-18T14:47:38.682Z,5.53
2022-10-18T14:50:44.245Z,7.63
2022-10-18T14:53:49.032Z,6.83
2022-10-18T14:56:52.235Z,6.00
2022-10-18T14:59:59.575Z,7.20
2022-10-18T15:03:04.441Z,6.77
2022-10-18T15:06:09.650Z,8.43
2022-10-18T15:09:14.151Z,5.77
2022-10-18T15:12:19.506Z,5.40
2022-10-18T15:15:26.604Z,6.27
2022-10-18T15:21:37.162Z,254.73
2022-10-18T15:24:41.560Z,284.10
2022-10-18T15:27:47.555Z,305.20
2022-10-18T15:30:50.637Z,264.93
2022-10-18T15:33:54.889Z,267.97
2022-10-18T15:36:59.325Z,259.97
2022-10-18T15:40:32.869Z,237.90
2022-10-18T15:43:37.949Z,225.83
2022-10-18T15:46:41.184Z,214.77
2022-10-18T15:49:55.348Z,208.53
2022-10-18T15:53:40.616Z,216.33
2022-10-18T15:56:44.858Z,207.50
2022-10-18T15:59:53.560Z,210.17
2022-10-18T16:02:56.593Z,210.63
2022-10-18T16:06:04.611Z,201.33
2022-10-18T16:09:14.096Z,152.43
2022-10-18T16:12:17.167Z,97.97
2022-10-18T16:15:20.396Z,79.60
2022-10-18T16:18:25.175Z,105.50
2022-10-18T16:21:31.339Z,87.83
2022-10-18T16:24:35.729Z,86.00
2022-10-18T16:27:38.752Z,79.43
2022-10-18T16:30:44.698Z,72.10
2022-10-18T16:33:48.333Z,33.87
2022-10-18T16:36:51.377Z,28.10
2022-10-18T16:39:55.798Z,25.90
2022-10-18T16:42:58.822Z,23.80
2022-10-18T16:46:02.451Z,14.50
2022-10-18T16:49:06.818Z,16.40
2022-10-18T16:52:09.869Z,12.40
2022-10-18T16:55:21.403Z,9.80
2022-10-18T16:58:25.124Z,10.70
2022-10-18T17:01:28.714Z,13.17
2022-10-18T17:04:31.740Z,13.70
2022-10-18T17:07:34.762Z,12.87
2022-10-18T17:10:39.154Z,13.27
2022-10-18T17:13:42.559Z,13.37
2022-10-18T17:16:48.720Z,13.57
2022-10-18T17:19:56.371Z,13.37
2022-10-18T17:22:59.499Z,11.67
2022-10-18T17:26:26.221Z,14.80
2022-10-18T17:29:27.040Z,12.53
2022-10-18T17:32:30.508Z,12.70
2022-10-18T17:35:33.872Z,13.73
2022-10-18T17:38:36.933Z,11.80
2022-10-18T17:41:41.349Z,11.93
2022-10-18T17:44:44.475Z,16.93
2022-10-18T17:47:47.847Z,10.97
2022-10-18T17:50:50.905Z,11.07
2022-10-18T17:53:54.984Z,11.13
2022-10-18T17:56:59.411Z,11.37
2022-10-18T18:00:03.223Z,10.40
2022-10-18T18:03:06.503Z,10.97
2022-10-18T18:06:17.790Z,10.47
2022-10-18T18:09:21.282Z,9.13
2022-10-18T18:12:25.669Z,11.50
2022-10-18T18:15:28.884Z,10.67
2022-10-18T18:18:31.882Z,11.10
2022-10-18T18:21:35.742Z,10.80
2022-10-18T18:24:38.441Z,11.73
2022-10-18T18:27:42.871Z,10.93
2022-10-18T18:30:45.820Z,11.43
2022-10-18T18:33:48.826Z,10.03
2022-10-18T18:36:51.987Z,9.40
2022-10-18T18:39:55.040Z,9.77
2022-10-18T18:43:19.049Z,10.23
2022-10-18T18:46:23.263Z,9.90
2022-10-18T18:49:27.970Z,10.37
2022-10-18T18:52:31.349Z,10.77
2022-10-18T18:55:39.710Z,10.67
2022-10-18T18:58:45.546Z,11.30
2022-10-18T19:01:48.605Z,10.90
2022-10-18T19:04:51.893Z,10.60
2022-10-18T19:07:54.991Z,10.53
2022-10-18T19:10:57.997Z,9.70
2022-10-18T19:14:03.358Z,10.57
2022-10-18T19:17:07.981Z,10.20
2022-10-18T19:20:12.812Z,10.20
2022-10-18T19:23:16.295Z,10.03
2022-10-18T19:26:32.063Z,10.33
2022-10-18T19:29:39.164Z,10.00
2022-10-18T19:32:42.161Z,10.00
2022-10-18T19:35:45.303Z,10.30
2022-10-18T19:38:48.409Z,10.90
2022-10-18T19:41:53.196Z,10.93
2022-10-18T19:44:57.713Z,10.10
2022-10-18T19:48:00.704Z,10.23
2022-10-18T19:51:09.443Z,11.63
2022-10-18T19:54:14.303Z,10.83
2022-10-18T19:57:17.302Z,11.20
2022-10-18T20:00:21.790Z,11.67
2022-10-18T20:03:26.062Z,12.90
2022-10-18T20:06:29.111Z,11.87
2022-10-18T20:09:32.450Z,12.23
2022-10-18T20:12:36.469Z,12.13
2022-10-18T20:15:40.837Z,12.67
2022-10-18T20:18:44.335Z,12.93
2022-10-18T20:21:47.349Z,13.43
2022-10-18T20:24:50.395Z,12.80
2022-10-18T20:27:53.439Z,13.90
2022-10-18T20:31:05.844Z,12.70
2022-10-18T20:34:12.306Z,12.83
2022-10-18T20:37:15.786Z,12.20
2022-10-18T20:40:19.022Z,14.27
2022-10-18T20:43:22.023Z,14.03
2022-10-18T20:46:27.506Z,12.50
2022-10-18T20:49:30.588Z,13.97
2022-10-18T20:52:33.766Z,12.97
2022-10-18T20:55:38.796Z,12.73
2022-10-18T20:58:45.520Z,13.07
2022-10-18T21:01:50.007Z,13.07
2022-10-18T21:04:53.422Z,13.63
2022-10-18T21:07:56.486Z,14.63
2022-10-18T21:11:02.152Z,16.40
2022-10-18T21:14:06.382Z,13.23
2022-10-18T21:17:10.778Z,14.43
2022-10-18T21:20:13.814Z,14.53
2022-10-18T21:23:17.133Z,13.77
2022-10-18T21:26:21.998Z,13.03
2022-10-18T21:29:25.735Z,15.27
2022-10-18T21:32:30.326Z,13.90
2022-10-18T21:35:36.291Z,14.00
2022-10-18T21:38:39.562Z,14.00
2022-10-18T21:41:42.946Z,13.80
2022-10-18T21:44:45.974Z,12.80
2022-10-18T21:47:50.510Z,13.10
2022-10-18T21:50:53.534Z,12.80
2022-10-18T21:53:58.184Z,13.47
2022-10-18T21:57:01.189Z,12.73
2022-10-18T22:00:06.651Z,12.20
2022-10-18T22:03:12.855Z,12.70
2022-10-18T22:06:16.836Z,11.30
2022-10-18T22:09:21.271Z,12.90
2022-10-18T22:12:24.296Z,12.60
2022-10-18T22:15:27.492Z,13.13
2022-10-18T22:18:33.125Z,11.40
2022-10-18T22:21:36.465Z,12.17
2022-10-18T22:24:39.594Z,11.63
2022-10-18T22:27:42.612Z,12.23
2022-10-18T22:30:45.575Z,12.27
2022-10-18T22:33:54.174Z,11.57
2022-10-18T22:36:57.374Z,12.20
2022-10-18T22:40:00.399Z,11.43
2022-10-18T22:43:03.402Z,11.73
2022-10-18T22:46:08.738Z,12.00
2022-10-18T22:49:13.503Z,11.67
2022-10-18T22:52:16.502Z,11.20
2022-10-18T22:55:19.518Z,11.23
2022-10-18T22:58:22.871Z,11.17
2022-10-18T23:01:26.087Z,11.30
2022-10-18T23:04:30.510Z,11.33
2022-10-18T23:07:33.566Z,11.20
2022-10-18T23:10:37.928Z,10.47
2022-10-18T23:13:40.954Z,10.07
2022-10-18T23:16:44.484Z,11.37
2022-10-18T23:19:48.984Z,10.43
2022-10-18T23:22:52.353Z,11.80
2022-10-18T23:25:55.408Z,10.70
2022-10-18T23:28:58.602Z,10.97
2022-10-18T23:32:01.697Z,9.90
2022-10-18T23:35:06.876Z,10.47
2022-10-18T23:38:09.873Z,10.03
2022-10-18T23:41:14.816Z,11.50
2022-10-18T23:44:17.794Z,10.50
2022-10-18T23:47:21.198Z,10.90
2022-10-18T23:50:25.747Z,10.03
2022-10-18T23:53:29.390Z,10.37
2022-10-18T23:56:32.406Z,9.63
2022-10-18T23:59:35.411Z,10.20
